Terminal Aerodrome Forecast
Issued by NWS Wilmington, OH

Current Version | Previous Version | Graphics & Text | Print | Product List | Glossary On
Versions: 1 2 3 4 5 6 7 8 9 10 11 12 13 14 15 16 17 18 19 20
102
FTUS41 KILN 252335
TAFCMH
TAF
KCMH 252335Z 2600/2624 27014G22KT P6SM OVC035
      TEMPO 2600/2602 -SN BKN028
     FM260400 28010KT P6SM OVC035
     FM261100 27008KT P6SM SCT040
     FM261300 24007KT P6SM FEW250
     FM261800 22012KT P6SM FEW250=

USA.gov is the U.S. government's official web portal to all federal, state and local government web resources and services.